Time;durP1;ratioP1;P1;durP2;ratioP2;P2;SDS_P1;SDS_P2;PMS_P1;PMS_P2;Temp;Humidity;BMP_temperature;BMP_pressure;BME280_temperature;BME280_humidity;BME280_pressure;Samples;Min_cycle;Max_cycle;Signal;HPM_P1;HPM_P2
2021/12/25 00:01:15;;;;;;;5.05;1.75;;;;;;;;;;6208436;23;20066;-84
2021/12/25 00:03:42;;;;;;;6.45;1.92;;;;;;;;;;6183797;23;20099;-86
2021/12/25 00:06:08;;;;;;;4.65;1.35;;;;;;;;;;6208384;23;20016;-84
2021/12/25 00:08:34;;;;;;;3.20;1.15;;;;;;;;;;6183394;23;20023;-84
2021/12/25 00:11:01;;;;;;;6.78;1.65;;;;;;;;;;6208346;23;20017;-84
2021/12/25 00:13:28;;;;;;;6.80;1.35;;;;;;;;;;6208286;23;20013;-84
2021/12/25 00:15:54;;;;;;;2.90;0.93;;;;;;;;;;6208286;23;20092;-84
2021/12/25 00:18:21;;;;;;;5.68;1.08;;;;;;;;;;6208647;23;20013;-84
2021/12/25 00:20:47;;;;;;;4.03;1.15;;;;;;;;;;6208179;23;20012;-84
2021/12/25 00:23:14;;;;;;;8.23;1.25;;;;;;;;;;6183099;23;20095;-85
2021/12/25 00:25:46;;;;;;;4.78;1.10;;;;;;;;;;6183234;23;20450;-83
2021/12/25 00:35:56;;;;;;;4.47;1.48;;;;;;;;;;6208439;23;20028;-83
2021/12/25 00:38:22;;;;;;;3.22;0.90;;;;;;;;;;6207696;23;20020;-83
2021/12/25 00:40:48;;;;;;;3.92;0.98;;;;;;;;;;6207976;23;20024;-83
2021/12/25 00:43:14;;;;;;;3.92;1.10;;;;;;;;;;6208158;23;20088;-84
2021/12/25 00:45:40;;;;;;;4.28;1.02;;;;;;;;;;6208143;23;20378;-83
2021/12/25 00:48:06;;;;;;;2.95;1.02;;;;;;;;;;6208120;23;20012;-84
2021/12/25 00:50:33;;;;;;;4.00;1.00;;;;;;;;;;6209690;23;20058;-84
2021/12/25 00:52:59;;;;;;;3.38;1.00;;;;;;;;;;6210116;23;20013;-85
2021/12/25 00:55:25;;;;;;;2.55;1.00;;;;;;;;;;6210179;23;20469;-83
2021/12/25 00:57:51;;;;;;;3.05;1.05;;;;;;;;;;6210289;23;20008;-84
2021/12/25 01:00:18;;;;;;;3.75;1.00;;;;;;;;;;6210267;23;20020;-84
2021/12/25 01:02:45;;;;;;;3.22;1.23;;;;;;;;;;6184922;23;20024;-84
2021/12/25 01:05:12;;;;;;;5.10;1.20;;;;;;;;;;6210760;23;20012;-84
2021/12/25 01:07:39;;;;;;;3.08;1.20;;;;;;;;;;6210031;23;20095;-84
2021/12/25 01:10:08;;;;;;;4.90;1.10;;;;;;;;;;6210050;23;20374;-83
2021/12/25 01:12:50;;;;;;;1.80;0.90;;;;;;;;;;6209841;23;20267;-84
2021/12/25 01:15:19;;;;;;;3.30;0.85;;;;;;;;;;6209851;23;20477;-83
2021/12/25 01:20:59;;;;;;;;;;;;;;;;;;6210950;23;20012;-83
2021/12/25 01:23:53;;;;;;;5.63;1.25;;;;;;;;;;6209603;23;20281;-83
2021/12/25 01:34:51;;;;;;;;;;;;;;;;;;6210810;23;20092;-83
2021/12/25 01:50:11;;;;;;;3.25;0.90;;;;;;;;;;6209442;23;19912;-82
2021/12/25 01:52:37;;;;;;;1.90;0.88;;;;;;;;;;6209215;23;20013;-84
2021/12/25 01:55:12;;;;;;;2.83;0.90;;;;;;;;;;6184584;23;20013;-83
2021/12/25 01:57:40;;;;;;;4.03;1.50;;;;;;;;;;6209677;23;20047;-83
2021/12/25 02:00:08;;;;;;;2.60;1.05;;;;;;;;;;6209778;23;20214;-83
2021/12/25 02:02:34;;;;;;;5.72;1.30;;;;;;;;;;6209583;23;20035;-83
2021/12/25 02:05:00;;;;;;;2.42;1.10;;;;;;;;;;6209521;23;20025;-83
2021/12/25 02:07:26;;;;;;;2.60;0.98;;;;;;;;;;6209529;23;20023;-84
2021/12/25 02:09:53;;;;;;;5.93;2.30;;;;;;;;;;6209412;23;20055;-83
2021/12/25 02:12:19;;;;;;;3.85;0.80;;;;;;;;;;6209674;23;20397;-83
2021/12/25 02:14:47;;;;;;;3.45;0.80;;;;;;;;;;6209402;23;20269;-83
2021/12/25 02:17:20;;;;;;;3.28;0.80;;;;;;;;;;6209455;23;20013;-83
2021/12/25 02:19:55;;;;;;;2.97;1.00;;;;;;;;;;6209503;23;20016;-83
2021/12/25 02:22:27;;;;;;;3.70;1.20;;;;;;;;;;6209258;23;20190;-83
2021/12/25 02:24:53;;;;;;;3.53;1.02;;;;;;;;;;6209933;23;20024;-83
2021/12/25 02:27:19;;;;;;;3.22;1.15;;;;;;;;;;6209051;23;20074;-83
2021/12/25 02:29:46;;;;;;;4.03;1.10;;;;;;;;;;6209296;23;20017;-82
2021/12/25 02:32:12;;;;;;;2.00;0.80;;;;;;;;;;6209366;23;20518;-83
2021/12/25 02:34:38;;;;;;;3.58;1.20;;;;;;;;;;6209056;23;20013;-83
2021/12/25 02:37:05;;;;;;;3.13;1.10;;;;;;;;;;6208958;23;20008;-82
2021/12/25 02:39:31;;;;;;;3.72;1.27;;;;;;;;;;6208797;23;20067;-82
2021/12/25 02:41:57;;;;;;;3.40;0.98;;;;;;;;;;6208889;23;20025;-83
2021/12/25 02:44:23;;;;;;;2.70;1.02;;;;;;;;;;6209102;23;20017;-82
2021/12/25 02:46:53;;;;;;;2.75;1.00;;;;;;;;;;6209143;23;20320;-83
2021/12/25 02:49:20;;;;;;;2.80;1.10;;;;;;;;;;6209187;23;20515;-84
2021/12/25 02:51:46;;;;;;;5.15;1.35;;;;;;;;;;6209092;23;20029;-82
2021/12/25 02:54:13;;;;;;;5.80;1.30;;;;;;;;;;6209017;23;20016;-83
2021/12/25 02:56:39;;;;;;;3.45;0.98;;;;;;;;;;6208948;23;20009;-83
2021/12/25 02:59:05;;;;;;;5.93;1.00;;;;;;;;;;6183955;23;20313;-81
2021/12/25 03:01:31;;;;;;;3.28;1.00;;;;;;;;;;6208834;23;20019;-82
2021/12/25 03:03:58;;;;;;;3.05;0.95;;;;;;;;;;6183985;23;20016;-83
2021/12/25 03:06:25;;;;;;;3.85;1.02;;;;;;;;;;6208564;23;20103;-83
2021/12/25 03:08:51;;;;;;;2.38;1.13;;;;;;;;;;6183875;23;20111;-82
2021/12/25 03:11:17;;;;;;;1.90;1.10;;;;;;;;;;6209035;23;20367;-83
2021/12/25 03:16:11;;;;;;;2.58;1.10;;;;;;;;;;6209022;23;20062;-82
2021/12/25 03:18:44;;;;;;;3.45;1.02;;;;;;;;;;6184184;23;20015;-83
2021/12/25 03:21:10;;;;;;;3.97;0.90;;;;;;;;;;6208922;23;20013;-82
2021/12/25 03:23:37;;;;;;;3.03;1.05;;;;;;;;;;6208712;23;20042;-82
2021/12/25 03:26:04;;;;;;;2.17;1.00;;;;;;;;;;6208714;23;20016;-83
2021/12/25 03:28:33;;;;;;;2.83;0.90;;;;;;;;;;6208625;23;20047;-83
2021/12/25 03:31:04;;;;;;;3.53;1.10;;;;;;;;;;6208471;23;20346;-83
2021/12/25 03:33:30;;;;;;;3.78;0.90;;;;;;;;;;6208756;23;20016;-83
2021/12/25 03:35:57;;;;;;;1.98;0.90;;;;;;;;;;6208614;23;20008;-83
2021/12/25 03:38:24;;;;;;;2.47;0.80;;;;;;;;;;6208521;23;20447;-83
2021/12/25 03:40:51;;;;;;;2.53;0.90;;;;;;;;;;6208266;23;20016;-83
2021/12/25 03:43:17;;;;;;;3.42;0.90;;;;;;;;;;6183422;23;20120;-83
2021/12/25 03:45:44;;;;;;;4.00;1.35;;;;;;;;;;6208425;23;20470;-82
2021/12/25 03:59:00;;;;;;;3.92;1.20;;;;;;;;;;6208387;23;20100;-83
2021/12/25 04:06:45;;;;;;;2.55;0.80;;;;;;;;;;6208437;23;20056;-83
2021/12/25 04:09:22;;;;;;;2.83;0.90;;;;;;;;;;6183756;23;20514;-83
2021/12/25 04:11:48;;;;;;;1.52;0.80;;;;;;;;;;6208655;23;20263;-82
2021/12/25 04:14:14;;;;;;;3.30;1.13;;;;;;;;;;6208446;23;20013;-83
2021/12/25 04:16:41;;;;;;;2.50;0.82;;;;;;;;;;6208125;23;20048;-83
2021/12/25 04:19:07;;;;;;;2.38;0.90;;;;;;;;;;6208229;23;20009;-83
2021/12/25 04:21:36;;;;;;;2.63;1.08;;;;;;;;;;6207923;23;20079;-82
2021/12/25 04:24:02;;;;;;;2.60;0.88;;;;;;;;;;6208030;23;20350;-83
2021/12/25 04:26:28;;;;;;;3.90;1.10;;;;;;;;;;6208286;23;20052;-83
2021/12/25 04:48:19;;;;;;;;;;;;;;;;;;6208726;23;20240;-82
2021/12/25 05:04:12;;;;;;;4.03;1.30;;;;;;;;;;6208341;23;19986;-83
2021/12/25 05:06:38;;;;;;;3.72;0.90;;;;;;;;;;6208077;23;20518;-83
2021/12/25 05:09:05;;;;;;;2.65;1.08;;;;;;;;;;6207923;23;20012;-82
2021/12/25 05:11:31;;;;;;;4.82;0.93;;;;;;;;;;6207475;23;20017;-82
2021/12/25 05:13:57;;;;;;;4.13;0.98;;;;;;;;;;6207844;23;20012;-82
2021/12/25 05:16:24;;;;;;;2.10;0.98;;;;;;;;;;6207754;23;20135;-82
2021/12/25 05:18:51;;;;;;;3.38;0.90;;;;;;;;;;6207727;23;20116;-82
2021/12/25 05:21:18;;;;;;;3.97;0.90;;;;;;;;;;6207293;23;20043;-83
2021/12/25 05:23:44;;;;;;;2.80;1.17;;;;;;;;;;6207963;23;20021;-82
2021/12/25 05:26:11;;;;;;;3.83;1.13;;;;;;;;;;6207861;23;20378;-82
2021/12/25 05:28:43;;;;;;;3.47;1.27;;;;;;;;;;6208424;23;20019;-82
2021/12/25 05:31:10;;;;;;;2.35;0.98;;;;;;;;;;6207252;23;20067;-82
2021/12/25 05:33:37;;;;;;;2.38;1.27;;;;;;;;;;6207836;23;20012;-82
2021/12/25 05:36:03;;;;;;;2.00;0.93;;;;;;;;;;6208771;23;20013;-82
2021/12/25 05:38:30;;;;;;;4.03;1.05;;;;;;;;;;6209840;23;20013;-82
2021/12/25 05:40:56;;;;;;;2.88;1.00;;;;;;;;;;6209017;23;20071;-82
2021/12/25 05:43:23;;;;;;;5.57;1.25;;;;;;;;;;6210007;23;20415;-82
2021/12/25 05:45:49;;;;;;;3.90;0.82;;;;;;;;;;6209736;23;20015;-83
2021/12/25 05:48:15;;;;;;;3.03;0.98;;;;;;;;;;6209775;23;20071;-82
2021/12/25 05:50:42;;;;;;;2.35;1.00;;;;;;;;;;6209138;23;20016;-83
2021/12/25 05:53:11;;;;;;;1.90;0.93;;;;;;;;;;6210291;23;20399;-82
2021/12/25 05:55:37;;;;;;;2.20;1.00;;;;;;;;;;6209978;23;20009;-82
2021/12/25 05:58:04;;;;;;;1.60;0.88;;;;;;;;;;6209555;23;20096;-82
2021/12/25 06:00:31;;;;;;;3.88;0.80;;;;;;;;;;6208865;23;20044;-82
2021/12/25 06:02:58;;;;;;;4.00;1.00;;;;;;;;;;6209613;23;20390;-82
2021/12/25 06:05:25;;;;;;;2.13;0.90;;;;;;;;;;6209654;23;20342;-82
2021/12/25 06:07:51;;;;;;;2.53;0.90;;;;;;;;;;6209319;23;20430;-81
2021/12/25 06:10:17;;;;;;;2.55;0.93;;;;;;;;;;6183821;23;20016;-81
2021/12/25 06:12:44;;;;;;;3.17;1.00;;;;;;;;;;6209681;23;20116;-82
2021/12/25 06:15:14;;;;;;;3.13;1.02;;;;;;;;;;6209427;23;20009;-81
2021/12/25 06:17:40;;;;;;;2.50;1.02;;;;;;;;;;6209737;23;20040;-82
2021/12/25 06:20:07;;;;;;;2.05;0.90;;;;;;;;;;6209217;23;20465;-82
2021/12/25 06:22:33;;;;;;;2.72;0.90;;;;;;;;;;6209522;23;20158;-82
2021/12/25 06:24:59;;;;;;;5.10;1.45;;;;;;;;;;6209259;23;20016;-82
2021/12/25 06:27:26;;;;;;;2.42;0.73;;;;;;;;;;6184376;23;20048;-82
2021/12/25 06:29:52;;;;;;;3.20;0.90;;;;;;;;;;6209002;23;20442;-81
2021/12/25 06:32:19;;;;;;;5.88;1.23;;;;;;;;;;6209041;23;20096;-81
2021/12/25 06:34:45;;;;;;;3.38;0.88;;;;;;;;;;6209117;23;20017;-81
2021/12/25 06:37:12;;;;;;;3.38;1.10;;;;;;;;;;6209398;23;20512;-81
2021/12/25 06:39:39;;;;;;;4.47;1.08;;;;;;;;;;6208611;23;20075;-81
2021/12/25 06:42:07;;;;;;;3.15;0.98;;;;;;;;;;6209400;23;20466;-80
2021/12/25 06:44:33;;;;;;;3.55;1.00;;;;;;;;;;6209050;23;20016;-81
2021/12/25 06:47:00;;;;;;;2.33;1.02;;;;;;;;;;6208720;23;20021;-81
2021/12/25 06:49:26;;;;;;;2.80;0.80;;;;;;;;;;6208428;23;20488;-81
2021/12/25 06:51:53;;;;;;;3.00;1.10;;;;;;;;;;6208863;23;20026;-81
2021/12/25 06:54:19;;;;;;;4.63;1.20;;;;;;;;;;6209286;23;20020;-81
2021/12/25 06:56:46;;;;;;;2.47;0.98;;;;;;;;;;6208921;23;20008;-81
2021/12/25 06:59:13;;;;;;;3.72;0.98;;;;;;;;;;6209355;23;20019;-81
2021/12/25 07:01:39;;;;;;;2.85;0.93;;;;;;;;;;6208228;23;20442;-80
2021/12/25 07:04:09;;;;;;;2.80;1.00;;;;;;;;;;6208897;23;20016;-81
2021/12/25 07:06:39;;;;;;;2.67;0.95;;;;;;;;;;6209137;23;20020;-81
2021/12/25 07:09:06;;;;;;;3.60;1.08;;;;;;;;;;6208996;23;20016;-81
2021/12/25 07:11:33;;;;;;;5.60;1.20;;;;;;;;;;6208225;23;20099;-81
2021/12/25 07:14:02;;;;;;;5.88;1.40;;;;;;;;;;6209307;23;20479;-81
2021/12/25 07:16:29;;;;;;;1.80;0.98;;;;;;;;;;6208931;23;20483;-81
2021/12/25 07:18:55;;;;;;;5.85;0.98;;;;;;;;;;6209048;23;20016;-81
2021/12/25 07:21:21;;;;;;;1.83;0.90;;;;;;;;;;6208180;23;20021;-81
2021/12/25 07:23:48;;;;;;;2.35;1.05;;;;;;;;;;6209010;23;20016;-81
2021/12/25 07:26:17;;;;;;;2.63;0.82;;;;;;;;;;6208715;23;20012;-82
2021/12/25 07:28:43;;;;;;;4.65;1.10;;;;;;;;;;6209046;23;20024;-81
2021/12/25 07:31:10;;;;;;;11.25;1.42;;;;;;;;;;6207887;23;20566;-81
2021/12/25 07:33:37;;;;;;;4.88;1.02;;;;;;;;;;6208661;23;20341;-81
2021/12/25 07:36:03;;;;;;;2.28;1.02;;;;;;;;;;6208527;23;20036;-80
2021/12/25 07:38:30;;;;;;;3.20;0.88;;;;;;;;;;6208788;23;20335;-81
2021/12/25 07:40:56;;;;;;;2.55;0.98;;;;;;;;;;6183413;23;20414;-81
2021/12/25 07:43:22;;;;;;;2.88;1.08;;;;;;;;;;6208895;23;20021;-81
2021/12/25 07:45:51;;;;;;;2.55;0.80;;;;;;;;;;6208692;23;20012;-82
2021/12/25 07:48:19;;;;;;;3.33;1.20;;;;;;;;;;6208629;23;20469;-82
2021/12/25 07:50:46;;;;;;;2.67;1.30;;;;;;;;;;6182879;23;20062;-83
2021/12/25 07:53:12;;;;;;;3.95;1.20;;;;;;;;;;6208543;23;20016;-83
2021/12/25 07:55:38;;;;;;;4.95;1.27;;;;;;;;;;6208073;23;20068;-83
2021/12/25 07:58:06;;;;;;;4.28;1.23;;;;;;;;;;6208042;23;20020;-82
2021/12/25 08:00:32;;;;;;;3.25;1.40;;;;;;;;;;6208258;23;20024;-82
2021/12/25 08:02:58;;;;;;;4.30;1.40;;;;;;;;;;6208389;23;20016;-82
2021/12/25 08:05:25;;;;;;;5.72;1.30;;;;;;;;;;6208415;23;20017;-81
2021/12/25 08:07:51;;;;;;;4.47;1.70;;;;;;;;;;6183646;23;20017;-81
2021/12/25 08:10:19;;;;;;;3.90;1.40;;;;;;;;;;6208152;23;20051;-81
2021/12/25 08:12:49;;;;;;;6.85;1.17;;;;;;;;;;6183415;23;20274;-81
2021/12/25 08:15:17;;;;;;;4.05;1.02;;;;;;;;;;6208342;23;20477;-80
2021/12/25 08:17:43;;;;;;;1.95;1.02;;;;;;;;;;6183748;23;20012;-80
2021/12/25 08:20:10;;;;;;;1.63;1.15;;;;;;;;;;6208249;23;20071;-82
2021/12/25 08:22:36;;;;;;;4.50;1.40;;;;;;;;;;6207810;23;20020;-82
2021/12/25 08:25:04;;;;;;;2.80;0.90;;;;;;;;;;6208202;23;20047;-81
2021/12/25 08:27:30;;;;;;;5.22;1.30;;;;;;;;;;6185377;23;20017;-81
2021/12/25 08:29:56;;;;;;;3.92;1.10;;;;;;;;;;6208332;23;20078;-81
2021/12/25 08:32:23;;;;;;;3.65;1.10;;;;;;;;;;6207973;23;20107;-81
2021/12/25 08:34:49;;;;;;;2.58;1.20;;;;;;;;;;6208085;23;20507;-80
2021/12/25 08:37:15;;;;;;;2.25;1.00;;;;;;;;;;6208195;23;20481;-80
2021/12/25 08:39:42;;;;;;;3.47;1.30;;;;;;;;;;6207781;23;20027;-81
2021/12/25 08:42:09;;;;;;;3.22;1.17;;;;;;;;;;6210067;23;20106;-81
2021/12/25 08:44:41;;;;;;;5.80;1.30;;;;;;;;;;6208552;23;20095;-80
2021/12/25 08:47:12;;;;;;;4.38;1.40;;;;;;;;;;6208607;23;20020;-80
2021/12/25 08:49:40;;;;;;;2.95;1.05;;;;;;;;;;6210086;23;20315;-80
2021/12/25 08:52:08;;;;;;;4.68;1.27;;;;;;;;;;6209936;23;20017;-84
2021/12/25 08:54:34;;;;;;;4.05;1.48;;;;;;;;;;6209476;23;20013;-80
2021/12/25 08:57:01;;;;;;;4.93;1.50;;;;;;;;;;6209417;23;20016;-80
2021/12/25 08:59:28;;;;;;;2.58;1.30;;;;;;;;;;6209954;23;20016;-79
2021/12/25 09:01:55;;;;;;;2.72;1.33;;;;;;;;;;6184529;23;20013;-80
2021/12/25 09:04:21;;;;;;;3.03;1.33;;;;;;;;;;6209667;23;20071;-79
2021/12/25 09:06:47;;;;;;;5.00;1.25;;;;;;;;;;6208782;23;20016;-79
2021/12/25 09:09:14;;;;;;;3.20;1.10;;;;;;;;;;6207190;23;20021;-79
2021/12/25 09:11:40;;;;;;;3.85;1.20;;;;;;;;;;6209118;23;20020;-80
2021/12/25 09:14:07;;;;;;;4.15;1.38;;;;;;;;;;6209556;23;20447;-79
2021/12/25 09:16:33;;;;;;;3.92;1.35;;;;;;;;;;6209443;23;20083;-81
2021/12/25 09:19:00;;;;;;;3.53;1.20;;;;;;;;;;6184286;23;20311;-80
2021/12/25 09:21:26;;;;;;;2.40;1.10;;;;;;;;;;6183475;23;20013;-80
2021/12/25 09:23:52;;;;;;;3.80;1.30;;;;;;;;;;6209104;23;20032;-80
2021/12/25 09:26:19;;;;;;;4.00;1.15;;;;;;;;;;6208896;23;20135;-80
2021/12/25 09:28:46;;;;;;;5.18;1.42;;;;;;;;;;6208954;23;20021;-80
2021/12/25 09:31:12;;;;;;;2.30;1.20;;;;;;;;;;6209006;23;20485;-80
2021/12/25 09:33:39;;;;;;;2.90;1.40;;;;;;;;;;6184672;23;20012;-80
2021/12/25 09:36:06;;;;;;;3.85;1.30;;;;;;;;;;6210021;23;20012;-80
2021/12/25 09:38:33;;;;;;;4.65;1.50;;;;;;;;;;6209381;23;20012;-80
2021/12/25 09:41:00;;;;;;;3.83;1.42;;;;;;;;;;6208239;23;20020;-79
2021/12/25 09:43:26;;;;;;;5.68;1.48;;;;;;;;;;6209144;23;20020;-78
2021/12/25 09:45:54;;;;;;;5.80;1.45;;;;;;;;;;6209574;23;20499;-79
2021/12/25 09:48:20;;;;;;;4.82;1.73;;;;;;;;;;6209013;23;20023;-80
2021/12/25 09:50:47;;;;;;;3.67;1.20;;;;;;;;;;6183701;23;20024;-80
2021/12/25 09:53:14;;;;;;;5.00;1.65;;;;;;;;;;6208819;23;20052;-79
2021/12/25 09:55:42;;;;;;;3.58;1.40;;;;;;;;;;6209001;23;20023;-79
2021/12/25 09:58:08;;;;;;;5.85;1.52;;;;;;;;;;6208992;23;20076;-79
2021/12/25 10:00:35;;;;;;;5.18;1.70;;;;;;;;;;6208824;23;20023;-79
2021/12/25 10:03:04;;;;;;;3.65;1.40;;;;;;;;;;6208820;23;20013;-79
2021/12/25 10:05:32;;;;;;;3.28;1.27;;;;;;;;;;6208850;23;20346;-79
2021/12/25 10:08:06;;;;;;;6.45;1.50;;;;;;;;;;6210603;23;20044;-80
2021/12/25 10:10:32;;;;;;;;;;;;;;;;;;6212012;23;20013;-80
2021/12/25 10:13:00;;;;;;;5.47;1.58;;;;;;;;;;6210870;23;20223;-80
2021/12/25 10:15:28;;;;;;;3.38;1.35;;;;;;;;;;6209365;23;20070;-79
2021/12/25 10:17:56;;;;;;;4.63;1.20;;;;;;;;;;6184498;23;20024;-79
2021/12/25 10:20:27;;;;;;;4.28;1.50;;;;;;;;;;6183987;23;20042;-81
2021/12/25 10:23:25;;;;;;;5.40;1.30;;;;;;;;;;6208607;23;20012;-80
2021/12/25 10:25:59;;;;;;;1.92;1.08;;;;;;;;;;6209174;23;20397;-79
2021/12/25 10:28:36;;;;;;;6.38;1.42;;;;;;;;;;6211679;23;20445;-80
2021/12/25 10:31:16;;;;;;;3.03;1.38;;;;;;;;;;6211436;23;20162;-80
2021/12/25 10:33:51;;;;;;;3.50;1.40;;;;;;;;;;6210136;23;20077;-79
2021/12/25 10:36:17;;;;;;;;;;;;;;;;;;6210125;23;20346;-79
2021/12/25 10:38:56;;;;;;;3.95;1.58;;;;;;;;;;6209573;23;19940;-80
2021/12/25 10:41:23;;;;;;;2.75;1.10;;;;;;;;;;6208946;23;20024;-80
2021/12/25 10:43:52;;;;;;;4.25;1.00;;;;;;;;;;6209126;23;20021;-80
2021/12/25 10:46:18;;;;;;;3.83;1.30;;;;;;;;;;6209047;23;20032;-80
2021/12/25 10:48:45;;;;;;;3.80;1.30;;;;;;;;;;6208661;23;20362;-80
2021/12/25 10:51:31;;;;;;;4.28;1.13;;;;;;;;;;6208886;23;20020;-80
2021/12/25 10:53:58;;;;;;;4.72;1.40;;;;;;;;;;6208557;23;20243;-80
2021/12/25 10:56:33;;;;;;;2.95;1.10;;;;;;;;;;6209047;23;20016;-79
2021/12/25 10:59:08;;;;;;;3.40;1.10;;;;;;;;;;6208638;23;20012;-80
2021/12/25 11:01:40;;;;;;;4.30;1.30;;;;;;;;;;6208789;23;20082;-80
2021/12/25 11:04:08;;;;;;;2.88;1.25;;;;;;;;;;6208533;23;20021;-80
2021/12/25 11:06:42;;;;;;;5.63;1.35;;;;;;;;;;6208611;23;20320;-81
2021/12/25 11:09:09;;;;;;;3.00;1.17;;;;;;;;;;6183593;23;20350;-80
2021/12/25 11:11:35;;;;;;;3.60;1.30;;;;;;;;;;6183228;23;20048;-80
2021/12/25 11:14:02;;;;;;;2.78;1.13;;;;;;;;;;6207182;23;20116;-80
2021/12/25 11:16:32;;;;;;;2.83;1.40;;;;;;;;;;6208005;23;20017;-80
2021/12/25 11:19:09;;;;;;;4.25;1.40;;;;;;;;;;6208643;23;20350;-80
2021/12/25 11:21:44;;;;;;;4.63;1.23;;;;;;;;;;6208732;23;20021;-81
2021/12/25 11:24:14;;;;;;;3.85;1.30;;;;;;;;;;6183545;23;20619;-81
2021/12/25 11:26:41;;;;;;;3.47;1.15;;;;;;;;;;6208800;23;20214;-81
2021/12/25 11:29:08;;;;;;;5.57;1.23;;;;;;;;;;6208090;23;20095;-81
2021/12/25 11:31:35;;;;;;;2.63;1.00;;;;;;;;;;6208096;23;20473;-81
2021/12/25 11:34:03;;;;;;;3.92;1.30;;;;;;;;;;6207772;23;20069;-81
2021/12/25 11:36:29;;;;;;;8.88;1.33;;;;;;;;;;6208138;23;20113;-81
2021/12/25 11:38:55;;;;;;;4.53;1.17;;;;;;;;;;6208723;23;20013;-81
2021/12/25 11:41:25;;;;;;;4.05;1.23;;;;;;;;;;6208060;23;20021;-80
2021/12/25 11:43:53;;;;;;;4.55;1.67;;;;;;;;;;6207871;23;20025;-81
2021/12/25 11:46:19;;;;;;;4.75;1.25;;;;;;;;;;6183092;23;20397;-81
2021/12/25 11:49:03;;;;;;;5.32;1.38;;;;;;;;;;6208150;23;20095;-79
2021/12/25 11:51:30;;;;;;;2.92;1.15;;;;;;;;;;6208057;23;20017;-80
2021/12/25 11:58:54;;;;;;;4.07;1.23;;;;;;;;;;6207912;23;20020;-80
2021/12/25 12:01:20;;;;;;;3.33;1.08;;;;;;;;;;6207895;23;20016;-80
2021/12/25 12:03:52;;;;;;;4.00;1.35;;;;;;;;;;6208014;23;20091;-80
2021/12/25 12:06:18;;;;;;;4.75;1.20;;;;;;;;;;6207559;23;20017;-81
2021/12/25 12:08:54;;;;;;;3.28;1.00;;;;;;;;;;6207739;23;20465;-81
2021/12/25 12:11:21;;;;;;;3.63;1.20;;;;;;;;;;6207517;23;20052;-80
2021/12/25 12:13:47;;;;;;;3.85;1.10;;;;;;;;;;6207012;23;20028;-81
2021/12/25 12:16:13;;;;;;;2.60;1.10;;;;;;;;;;6207504;23;20013;-80
2021/12/25 12:18:41;;;;;;;2.17;1.15;;;;;;;;;;6182398;23;20092;-80
2021/12/25 12:21:16;;;;;;;4.78;1.40;;;;;;;;;;6207858;23;20012;-81
2021/12/25 12:26:36;;;;;;;3.65;1.10;;;;;;;;;;6208046;23;20017;-81
2021/12/25 12:29:37;;;;;;;2.80;1.10;;;;;;;;;;6208635;23;20021;-81
2021/12/25 12:32:04;;;;;;;1.50;0.80;;;;;;;;;;6067596;23;20018;-81
2021/12/25 12:34:30;;;;;;;2.08;0.90;;;;;;;;;;6092712;23;20093;-80
2021/12/25 12:37:14;;;;;;;3.83;1.42;;;;;;;;;;6092034;23;20010;-80
2021/12/25 12:39:58;;;;;;;2.65;1.10;;;;;;;;;;6120007;23;20016;-80
2021/12/25 12:45:11;;;;;;;2.60;0.90;;;;;;;;;;6207406;23;20066;-80
2021/12/25 12:47:38;;;;;;;2.38;1.05;;;;;;;;;;6182841;23;20044;-81
2021/12/25 12:50:05;;;;;;;2.22;1.00;;;;;;;;;;6207997;23;20099;-81
2021/12/25 12:52:39;;;;;;;1.20;0.90;;;;;;;;;;6207720;23;20078;-81
2021/12/25 12:55:25;;;;;;;4.22;1.30;;;;;;;;;;6208092;23;20013;-80
2021/12/25 12:58:05;;;;;;;3.40;1.05;;;;;;;;;;6207951;23;20091;-81
2021/12/25 13:00:31;;;;;;;4.15;1.20;;;;;;;;;;6208325;23;20323;-80
2021/12/25 13:02:58;;;;;;;2.88;0.90;;;;;;;;;;6183001;23;20462;-81
2021/12/25 13:05:33;;;;;;;2.10;0.85;;;;;;;;;;6207954;23;20178;-81
2021/12/25 13:08:01;;;;;;;4.25;1.20;;;;;;;;;;6208120;23;20017;-81
2021/12/25 13:10:43;;;;;;;3.30;1.10;;;;;;;;;;6207885;23;20050;-81
2021/12/25 13:13:18;;;;;;;4.22;1.25;;;;;;;;;;6207262;23;20075;-81
2021/12/25 13:15:47;;;;;;;3.53;1.00;;;;;;;;;;6207931;23;20320;-80
2021/12/25 13:18:14;;;;;;;3.60;1.30;;;;;;;;;;6207855;23;20012;-80
2021/12/25 13:20:45;;;;;;;2.65;1.05;;;;;;;;;;6207928;23;20023;-80
2021/12/25 13:23:19;;;;;;;3.58;1.15;;;;;;;;;;6208185;23;20438;-79
2021/12/25 13:25:48;;;;;;;2.55;1.05;;;;;;;;;;6207865;23;20013;-82
2021/12/25 13:28:15;;;;;;;2.90;1.20;;;;;;;;;;6207831;23;20048;-82
2021/12/25 13:30:47;;;;;;;2.15;1.08;;;;;;;;;;6207803;23;20143;-81
2021/12/25 13:33:15;;;;;;;1.40;1.02;;;;;;;;;;6207726;23;20013;-81
2021/12/25 13:35:41;;;;;;;3.17;1.45;;;;;;;;;;6207743;23;20012;-81
2021/12/25 13:38:08;;;;;;;3.40;1.20;;;;;;;;;;6207642;23;20469;-82
2021/12/25 13:40:37;;;;;;;3.55;1.20;;;;;;;;;;6207459;23;20016;-81
2021/12/25 13:43:10;;;;;;;2.42;1.10;;;;;;;;;;6207962;23;20167;-81
2021/12/25 13:45:37;;;;;;;3.28;1.23;;;;;;;;;;6208202;23;20012;-81
2021/12/25 13:48:04;;;;;;;2.10;1.00;;;;;;;;;;6208055;23;20056;-82
2021/12/25 13:50:31;;;;;;;5.07;1.30;;;;;;;;;;6207695;23;20446;-82
2021/12/25 13:53:00;;;;;;;3.15;1.40;;;;;;;;;;6207577;23;20443;-82
2021/12/25 13:55:28;;;;;;;3.00;1.30;;;;;;;;;;6207614;23;20008;-81
2021/12/25 13:57:56;;;;;;;2.95;1.23;;;;;;;;;;6183700;23;20013;-81
2021/12/25 14:00:24;;;;;;;2.53;1.40;;;;;;;;;;6184403;23;20075;-82
2021/12/25 14:02:53;;;;;;;3.80;1.60;;;;;;;;;;6209400;23;20354;-82
2021/12/25 14:05:21;;;;;;;2.92;1.52;;;;;;;;;;6209418;23;20027;-82
2021/12/25 14:08:06;;;;;;;4.13;1.45;;;;;;;;;;6209415;23;20017;-82
2021/12/25 14:10:33;;;;;;;3.75;1.45;;;;;;;;;;6209375;23;20476;-81
2021/12/25 14:13:02;;;;;;;3.25;1.50;;;;;;;;;;6209150;23;20027;-81
2021/12/25 14:15:31;;;;;;;3.13;1.30;;;;;;;;;;6209583;23;20012;-82
2021/12/25 14:17:58;;;;;;;2.83;1.38;;;;;;;;;;6209337;23;20012;-82
2021/12/25 14:20:26;;;;;;;3.83;1.27;;;;;;;;;;6184412;23;20012;-82
2021/12/25 14:23:09;;;;;;;2.60;1.27;;;;;;;;;;6209772;23;20016;-82
2021/12/25 14:25:37;;;;;;;4.93;1.50;;;;;;;;;;6209687;23;20016;-82
2021/12/25 14:28:17;;;;;;;5.03;1.42;;;;;;;;;;6209267;23;20017;-83
2021/12/25 14:31:04;;;;;;;4.05;1.50;;;;;;;;;;6209273;23;20020;-82
2021/12/25 14:33:31;;;;;;;2.15;1.30;;;;;;;;;;6209565;23;20058;-82
2021/12/25 14:35:57;;;;;;;3.47;1.70;;;;;;;;;;6209502;23;20043;-82
2021/12/25 14:38:24;;;;;;;3.38;1.60;;;;;;;;;;6209267;23;20012;-81
2021/12/25 14:40:50;;;;;;;6.45;2.33;;;;;;;;;;6208727;23;20577;-81
2021/12/25 14:43:30;;;;;;;3.85;1.60;;;;;;;;;;6209274;23;20016;-81
2021/12/25 14:46:00;;;;;;;4.13;1.77;;;;;;;;;;6209324;23;20020;-82
2021/12/25 14:48:30;;;;;;;6.15;2.13;;;;;;;;;;6209205;23;20106;-82
2021/12/25 14:50:58;;;;;;;6.95;1.67;;;;;;;;;;6208980;23;20013;-82
2021/12/25 14:53:25;;;;;;;5.10;1.67;;;;;;;;;;6209450;23;20027;-82
2021/12/25 14:55:56;;;;;;;2.75;1.60;;;;;;;;;;6209143;23;20454;-82
2021/12/25 14:58:24;;;;;;;5.00;2.20;;;;;;;;;;6208924;23;20024;-82
2021/12/25 15:00:52;;;;;;;5.10;1.70;;;;;;;;;;6209090;23;20504;-82
2021/12/25 15:03:20;;;;;;;5.55;2.50;;;;;;;;;;6184093;23;20088;-82
2021/12/25 15:05:49;;;;;;;4.60;1.80;;;;;;;;;;6208941;23;20051;-82
2021/12/25 15:08:22;;;;;;;4.53;1.85;;;;;;;;;;6208687;23;20331;-82
2021/12/25 15:10:48;;;;;;;5.18;1.70;;;;;;;;;;6208734;23;20477;-82
2021/12/25 15:13:15;;;;;;;4.45;1.80;;;;;;;;;;6207991;23;20024;-82
2021/12/25 15:15:52;;;;;;;5.05;1.88;;;;;;;;;;6209338;23;20016;-82
2021/12/25 15:18:22;;;;;;;5.43;2.20;;;;;;;;;;6183994;23;20324;-81
2021/12/25 15:20:48;;;;;;;5.25;1.98;;;;;;;;;;6208877;23;20012;-82
2021/12/25 15:23:18;;;;;;;5.32;1.65;;;;;;;;;;6208888;23;20023;-82
2021/12/25 15:25:45;;;;;;;4.35;1.80;;;;;;;;;;6208778;23;20012;-82
2021/12/25 15:28:11;;;;;;;6.20;1.98;;;;;;;;;;6183727;23;20017;-82
2021/12/25 15:30:37;;;;;;;5.53;1.98;;;;;;;;;;6208834;23;20020;-82
2021/12/25 15:33:06;;;;;;;5.72;2.00;;;;;;;;;;6208688;23;20068;-82
2021/12/25 15:35:37;;;;;;;5.13;1.80;;;;;;;;;;6209478;23;20365;-81
2021/12/25 15:38:04;;;;;;;6.88;2.17;;;;;;;;;;6208451;23;20392;-82
2021/12/25 15:40:32;;;;;;;6.35;2.20;;;;;;;;;;6208758;23;20024;-81
2021/12/25 15:42:58;;;;;;;5.40;2.03;;;;;;;;;;6208500;23;20024;-82
2021/12/25 15:45:25;;;;;;;5.88;2.58;;;;;;;;;;6208497;23;20035;-81
2021/12/25 15:47:55;;;;;;;5.32;2.22;;;;;;;;;;6208724;23;20357;-81
2021/12/25 15:50:24;;;;;;;5.25;2.58;;;;;;;;;;6209066;23;20020;-81
2021/12/25 15:52:50;;;;;;;7.25;2.30;;;;;;;;;;6208828;23;20020;-81
2021/12/25 15:55:20;;;;;;;6.28;2.50;;;;;;;;;;6208743;23;20016;-81
2021/12/25 15:57:50;;;;;;;5.43;2.22;;;;;;;;;;6208662;23;20017;-81
2021/12/25 16:00:17;;;;;;;5.25;2.40;;;;;;;;;;6208679;23;20019;-81
2021/12/25 16:02:43;;;;;;;4.78;2.03;;;;;;;;;;6208703;23;20021;-81
2021/12/25 16:05:09;;;;;;;7.78;2.70;;;;;;;;;;6208523;23;20446;-80
2021/12/25 16:07:35;;;;;;;5.82;2.63;;;;;;;;;;6208722;23;20331;-81
2021/12/25 16:10:02;;;;;;;4.65;2.20;;;;;;;;;;6183587;23;20454;-81
2021/12/25 16:12:28;;;;;;;6.05;2.53;;;;;;;;;;6208527;23;20343;-81
2021/12/25 16:14:54;;;;;;;6.72;2.60;;;;;;;;;;6208295;23;20017;-81
2021/12/25 16:17:20;;;;;;;5.95;2.50;;;;;;;;;;6208179;23;20050;-81
2021/12/25 16:19:56;;;;;;;6.03;2.55;;;;;;;;;;6208349;23;20083;-81
2021/12/25 16:22:22;;;;;;;5.30;2.47;;;;;;;;;;6208172;23;20051;-81
2021/12/25 16:24:48;;;;;;;7.22;2.95;;;;;;;;;;6208007;23;20017;-81
2021/12/25 16:27:14;;;;;;;5.07;2.33;;;;;;;;;;6208214;23;20462;-80